Time;durP1;ratioP1;P1;durP2;ratioP2;P2;SDS_P1;SDS_P2;PMS_P1;PMS_P2;Temp;Humidity;BMP_temperature;BMP_pressure;BME280_temperature;BME280_humidity;BME280_pressure;Samples;Min_cycle;Max_cycle;Signal;HPM_P1;HPM_P2
2023/03/22 00:02:00;;;;;;;40.30;22.40;;;;;;;;;;106814;1278;22527;-83
2023/03/22 00:04:27;;;;;;;40.80;23.70;;;;;;;;;;106782;1275;25268;-83
2023/03/22 00:06:54;;;;;;;45.30;23.70;;;;;;;;;;106912;1278;22543;-79
2023/03/22 00:09:24;;;;;;;44.20;24.50;;;;;;;;;;106811;1260;24222;-83
2023/03/22 00:11:53;;;;;;;44.20;25.10;;;;;;;;;;106888;1278;22524;-80
2023/03/22 00:14:20;;;;;;;45.60;25.30;;;;;;;;;;106802;1278;22524;-85
2023/03/22 00:16:55;;;;;;;47.70;24.60;;;;;;;;;;106868;1278;22588;-82
2023/03/22 00:19:25;;;;;;;43.70;25.00;;;;;;;;;;106700;1264;22516;-82
2023/03/22 00:22:14;;;;;;;42.20;23.40;;;;;;;;;;106730;1279;22566;-80
2023/03/22 00:24:52;;;;;;;43.50;22.70;;;;;;;;;;106791;1279;25363;-83
2023/03/22 00:27:22;;;;;;;42.30;22.80;;;;;;;;;;106726;1279;22656;-80
2023/03/22 00:29:52;;;;;;;45.90;24.10;;;;;;;;;;106813;1264;22640;-84
2023/03/22 00:32:33;;;;;;;47.00;24.70;;;;;;;;;;106846;1275;22498;-85
2023/03/22 00:35:03;;;;;;;45.60;22.20;;;;;;;;;;106837;1278;22520;-79
2023/03/22 00:37:33;;;;;;;42.10;23.30;;;;;;;;;;106915;1275;22774;-85
2023/03/22 00:40:04;;;;;;;42.40;22.80;;;;;;;;;;106891;1275;22636;-83
2023/03/22 00:42:31;;;;;;;41.30;22.30;;;;;;;;;;107062;1275;26497;-82
2023/03/22 00:44:58;;;;;;;41.00;21.60;;;;;;;;;;106919;1275;22531;-80
2023/03/22 00:47:30;;;;;;;40.90;21.60;;;;;;;;;;106994;1275;24215;-80
2023/03/22 00:49:57;;;;;;;35.00;20.00;;;;;;;;;;106973;1258;23895;-80
2023/03/22 00:52:28;;;;;;;29.90;19.10;;;;;;;;;;107092;1275;22583;-81
2023/03/22 00:54:58;;;;;;;33.80;17.70;;;;;;;;;;106897;1275;25452;-80
2023/03/22 00:57:25;;;;;;;25.60;16.90;;;;;;;;;;106943;1275;24245;-82
2023/03/22 00:59:54;;;;;;;28.70;18.50;;;;;;;;;;106917;1259;22527;-80
2023/03/22 01:02:28;;;;;;;29.60;18.60;;;;;;;;;;106926;1275;24368;-83
2023/03/22 01:04:56;;;;;;;27.00;17.10;;;;;;;;;;106933;1275;23099;-81
2023/03/22 01:07:22;;;;;;;28.10;17.50;;;;;;;;;;106881;1276;25278;-78
2023/03/22 01:09:50;;;;;;;26.60;16.80;;;;;;;;;;106940;1259;22536;-85
2023/03/22 01:12:20;;;;;;;24.50;15.30;;;;;;;;;;107025;1275;22520;-79
2023/03/22 01:14:47;;;;;;;25.90;16.60;;;;;;;;;;106911;1275;24247;-78
2023/03/22 01:17:16;;;;;;;27.80;17.20;;;;;;;;;;106807;1275;25295;-80
2023/03/22 01:19:45;;;;;;;24.70;16.70;;;;;;;;;;106815;1256;25288;-78
2023/03/22 01:22:12;;;;;;;24.60;15.90;;;;;;;;;;106876;1275;22506;-79
2023/03/22 01:24:51;;;;;;;23.30;16.00;;;;;;;;;;106892;1275;22517;-80
2023/03/22 01:27:18;;;;;;;23.70;16.00;;;;;;;;;;107068;1275;22528;-78
2023/03/22 01:29:45;;;;;;;24.60;14.80;;;;;;;;;;107050;1275;22521;-84
2023/03/22 01:32:19;;;;;;;22.10;14.90;;;;;;;;;;106987;1275;22513;-84
2023/03/22 01:34:47;;;;;;;22.90;15.40;;;;;;;;;;107099;1275;22560;-82
2023/03/22 01:37:26;;;;;;;24.30;15.40;;;;;;;;;;106930;1275;25374;-77
2023/03/22 01:39:53;;;;;;;24.20;16.00;;;;;;;;;;106896;1258;22514;-79
2023/03/22 01:42:22;;;;;;;23.10;14.90;;;;;;;;;;107092;1275;25337;-82
2023/03/22 01:45:08;;;;;;;24.10;16.20;;;;;;;;;;107002;1275;22511;-84
2023/03/22 01:47:35;;;;;;;24.00;16.30;;;;;;;;;;107017;1275;22613;-82
2023/03/22 01:50:02;;;;;;;22.50;14.40;;;;;;;;;;106993;1275;22526;-81
2023/03/22 01:52:30;;;;;;;26.10;16.50;;;;;;;;;;107074;1275;24189;-82
2023/03/22 01:55:05;;;;;;;27.50;16.10;;;;;;;;;;107041;1275;25329;-77
2023/03/22 01:57:40;;;;;;;23.70;16.90;;;;;;;;;;107051;1275;22542;-82
2023/03/22 02:00:17;;;;;;;25.00;16.50;;;;;;;;;;107090;1256;22515;-78
2023/03/22 02:03:19;;;;;;;25.10;16.10;;;;;;;;;;106895;1275;25062;-82
2023/03/22 02:05:50;;;;;;;25.00;16.70;;;;;;;;;;107049;1275;23857;-81
2023/03/22 02:08:17;;;;;;;28.90;19.20;;;;;;;;;;106933;1275;22529;-84
2023/03/22 02:10:52;;;;;;;31.50;20.40;;;;;;;;;;107023;1256;22719;-81
2023/03/22 02:13:38;;;;;;;31.60;21.00;;;;;;;;;;106918;1275;23895;-78
2023/03/22 02:16:55;;;;;;;28.80;19.00;;;;;;;;;;107006;1275;25334;-81
2023/03/22 02:19:41;;;;;;;28.00;18.70;;;;;;;;;;107014;1275;22740;-78
2023/03/22 02:22:27;;;;;;;28.20;19.00;;;;;;;;;;107017;1275;25389;-79
2023/03/22 02:25:29;;;;;;;29.70;19.80;;;;;;;;;;107142;1275;22523;-79
2023/03/22 02:28:07;;;;;;;29.80;18.70;;;;;;;;;;107067;1275;24237;-85
2023/03/22 02:30:55;;;;;;;27.50;19.00;;;;;;;;;;106880;1259;24191;-79
2023/03/22 02:33:22;;;;;;;30.80;19.20;;;;;;;;;;107080;1275;23053;-79
2023/03/22 02:36:06;;;;;;;28.30;19.60;;;;;;;;;;107053;1275;22539;-78
2023/03/22 02:39:00;;;;;;;31.70;20.00;;;;;;;;;;106995;1275;25359;-78
2023/03/22 02:41:39;;;;;;;31.30;20.20;;;;;;;;;;107086;1252;22522;-82
2023/03/22 02:44:27;;;;;;;29.10;18.70;;;;;;;;;;107111;1275;22552;-83
2023/03/22 02:46:57;;;;;;;29.60;19.70;;;;;;;;;;106990;1275;24256;-80
2023/03/22 02:49:54;;;;;;;33.10;20.60;;;;;;;;;;107039;1254;22513;-78
2023/03/22 02:52:44;;;;;;;30.70;20.20;;;;;;;;;;106999;1265;23866;-78
2023/03/22 02:55:16;;;;;;;32.10;20.80;;;;;;;;;;107057;1275;22521;-81
2023/03/22 02:58:03;;;;;;;31.50;20.50;;;;;;;;;;107025;1275;24250;-80
2023/03/22 03:00:31;;;;;;;29.30;19.20;;;;;;;;;;106797;1275;24219;-82
2023/03/22 03:03:10;;;;;;;30.90;19.70;;;;;;;;;;106864;1259;22510;-83
2023/03/22 03:05:43;;;;;;;21.80;14.40;;;;;;;;;;106985;1275;23902;-80
2023/03/22 03:08:15;;;;;;;28.40;19.50;;;;;;;;;;106946;1275;25419;-82
2023/03/22 03:10:46;;;;;;;29.50;19.90;;;;;;;;;;106977;1268;22528;-78
2023/03/22 03:13:16;;;;;;;31.10;20.10;;;;;;;;;;106904;1259;22792;-82
2023/03/22 03:15:46;;;;;;;29.10;19.40;;;;;;;;;;107009;1275;22602;-78
2023/03/22 03:18:31;;;;;;;31.40;21.30;;;;;;;;;;107004;1275;25449;-77
2023/03/22 03:21:03;;;;;;;30.60;19.20;;;;;;;;;;107065;1275;22513;-81
2023/03/22 03:23:30;;;;;;;28.50;18.40;;;;;;;;;;106860;1267;22506;-78
2023/03/22 03:26:21;;;;;;;29.10;19.00;;;;;;;;;;106904;1275;22536;-80
2023/03/22 03:28:59;;;;;;;30.90;20.70;;;;;;;;;;107120;1275;25343;-82
2023/03/22 03:31:38;;;;;;;29.80;19.60;;;;;;;;;;107008;1275;24170;-77
2023/03/22 03:34:13;;;;;;;30.40;20.50;;;;;;;;;;107083;1256;22479;-81
2023/03/22 03:36:45;;;;;;;29.50;19.70;;;;;;;;;;106925;1275;24272;-82
2023/03/22 03:39:14;;;;;;;35.40;21.30;;;;;;;;;;107092;1275;22902;-82
2023/03/22 03:42:01;;;;;;;30.00;19.30;;;;;;;;;;107028;1275;24275;-85
2023/03/22 03:44:31;;;;;;;27.50;17.70;;;;;;;;;;107053;1257;24195;-82
2023/03/22 03:47:07;;;;;;;32.30;19.30;;;;;;;;;;107068;1275;22520;-83
2023/03/22 03:49:34;;;;;;;29.60;20.40;;;;;;;;;;106875;1275;22539;-79
2023/03/22 03:52:12;;;;;;;29.60;20.20;;;;;;;;;;106835;1275;24732;-81
2023/03/22 03:54:41;;;;;;;31.00;19.20;;;;;;;;;;106909;1268;25331;-80
2023/03/22 03:57:15;;;;;;;30.00;19.70;;;;;;;;;;107105;1275;24234;-81
2023/03/22 03:59:51;;;;;;;31.20;20.30;;;;;;;;;;106892;1275;25220;-83
2023/03/22 04:02:34;;;;;;;31.50;19.80;;;;;;;;;;107006;1275;24267;-78
2023/03/22 04:05:02;;;;;;;32.60;20.90;;;;;;;;;;106996;1259;22532;-84
2023/03/22 04:07:32;;;;;;;33.70;21.10;;;;;;;;;;107008;1275;22527;-84
2023/03/22 04:09:59;;;;;;;30.30;20.30;;;;;;;;;;106903;1275;25204;-81
2023/03/22 04:12:38;;;;;;;31.90;20.90;;;;;;;;;;107004;1275;24293;-79
2023/03/22 04:15:25;;;;;;;31.40;19.20;;;;;;;;;;106940;1270;22537;-79
2023/03/22 04:17:55;;;;;;;29.50;19.00;;;;;;;;;;107130;1275;25406;-78
2023/03/22 04:20:28;;;;;;;29.80;19.70;;;;;;;;;;107023;1275;25326;-80
2023/03/22 04:22:56;;;;;;;29.90;19.40;;;;;;;;;;107003;1275;25320;-79
2023/03/22 04:25:29;;;;;;;30.20;19.30;;;;;;;;;;107026;1257;21693;-81
2023/03/22 04:28:42;;;;;;;30.40;19.60;;;;;;;;;;107106;1275;22518;-80
2023/03/22 04:31:10;;;;;;;30.70;20.50;;;;;;;;;;107007;1275;25316;-82
2023/03/22 04:34:04;;;;;;;32.10;20.70;;;;;;;;;;107045;1275;24215;-78
2023/03/22 04:37:02;;;;;;;32.20;20.70;;;;;;;;;;107068;1275;24234;-81
2023/03/22 04:39:34;;;;;;;38.40;22.00;;;;;;;;;;107108;1275;23908;-83
2023/03/22 04:42:27;;;;;;;35.90;22.20;;;;;;;;;;106939;1275;25316;-81
2023/03/22 04:45:14;;;;;;;35.60;21.10;;;;;;;;;;107041;1252;25328;-82
2023/03/22 04:47:52;;;;;;;36.70;22.50;;;;;;;;;;107067;1275;22529;-81
2023/03/22 04:50:19;;;;;;;39.10;24.50;;;;;;;;;;107085;1275;25268;-82
2023/03/22 04:52:50;;;;;;;37.50;24.70;;;;;;;;;;107109;1275;23999;-83
2023/03/22 04:55:17;;;;;;;40.80;24.90;;;;;;;;;;106920;1254;22527;-79
2023/03/22 04:57:44;;;;;;;38.80;24.20;;;;;;;;;;106987;1275;22639;-79
2023/03/22 05:00:20;;;;;;;40.80;25.40;;;;;;;;;;107127;1275;24356;-84
2023/03/22 05:02:48;;;;;;;37.40;22.40;;;;;;;;;;107017;1275;24323;-79
2023/03/22 05:05:48;;;;;;;32.90;21.10;;;;;;;;;;106996;1253;22540;-80
2023/03/22 05:08:15;;;;;;;37.20;22.20;;;;;;;;;;106836;1275;22544;-78
2023/03/22 05:10:51;;;;;;;35.80;22.60;;;;;;;;;;106818;1275;22521;-82
2023/03/22 05:13:19;;;;;;;34.40;22.10;;;;;;;;;;107065;1275;25531;-81
2023/03/22 05:15:48;;;;;;;35.30;22.40;;;;;;;;;;107049;1257;24188;-78
2023/03/22 05:18:19;;;;;;;39.10;23.00;;;;;;;;;;107102;1275;25278;-78
2023/03/22 05:20:46;;;;;;;37.70;23.00;;;;;;;;;;107058;1275;22521;-78
2023/03/22 05:23:22;;;;;;;34.30;21.80;;;;;;;;;;107006;1275;25329;-79
2023/03/22 05:25:52;;;;;;;36.20;22.80;;;;;;;;;;106861;1275;24190;-84
2023/03/22 05:28:27;;;;;;;34.90;22.30;;;;;;;;;;107057;1275;25724;-82
2023/03/22 05:31:05;;;;;;;35.80;22.30;;;;;;;;;;107057;1275;22627;-81
2023/03/22 05:34:04;;;;;;;41.00;24.90;;;;;;;;;;107078;1275;22986;-84
2023/03/22 05:36:35;;;;;;;42.50;25.30;;;;;;;;;;107032;1257;24214;-82
2023/03/22 05:39:39;;;;;;;45.60;25.50;;;;;;;;;;106967;1275;22534;-78
2023/03/22 05:42:06;;;;;;;40.90;24.60;;;;;;;;;;106938;1275;22580;-80
2023/03/22 05:44:35;;;;;;;37.60;23.60;;;;;;;;;;106883;1275;22521;-87
2023/03/22 05:47:11;;;;;;;36.90;23.30;;;;;;;;;;106881;1258;25402;-81
2023/03/22 05:49:51;;;;;;;37.40;23.30;;;;;;;;;;106999;1275;22525;-82
2023/03/22 05:52:19;;;;;;;38.50;24.50;;;;;;;;;;107052;1275;24250;-82
2023/03/22 06:02:00;;;;;;;33.20;21.40;;;;;;;;;;103792;1295;545463;-81
2023/03/22 06:04:27;;;;;;;25.70;18.10;;;;;;;;;;106023;1288;22531;-85
2023/03/22 06:07:00;;;;;;;27.00;17.70;;;;;;;;;;106062;1288;22632;-83
2023/03/22 06:09:35;;;;;;;27.80;17.80;;;;;;;;;;105997;1288;22644;-80
2023/03/22 06:12:08;;;;;;;27.10;16.70;;;;;;;;;;106027;1270;25397;-79
2023/03/22 06:14:34;;;;;;;25.10;16.60;;;;;;;;;;104086;1285;2639927;-80
2023/03/22 06:17:37;;;;;;;24.10;16.70;;;;;;;;;;106073;1287;22590;-82
2023/03/22 06:20:08;;;;;;;24.80;17.50;;;;;;;;;;106048;1263;24238;-82
2023/03/22 06:22:36;;;;;;;23.00;16.30;;;;;;;;;;106372;1286;24249;-87
2023/03/22 06:25:06;;;;;;;25.60;16.50;;;;;;;;;;106374;1286;24200;-78
2023/03/22 06:27:53;;;;;;;;;;;;;;;;;;;;;
2023/03/22 06:30:20;;;;;;;24.10;16.70;;;;;;;;;;106445;1281;22673;-82
2023/03/22 06:33:20;;;;;;;24.20;16.90;;;;;;;;;;106500;1263;25336;-82
2023/03/22 06:35:51;;;;;;;26.80;17.10;;;;;;;;;;106524;1281;22549;-82
2023/03/22 06:38:28;;;;;;;28.50;16.90;;;;;;;;;;106429;1282;23867;-77
2023/03/22 06:40:55;;;;;;;24.00;15.80;;;;;;;;;;106369;1282;26489;-79
2023/03/22 06:43:22;;;;;;;23.70;16.30;;;;;;;;;;106422;1277;24221;-82
2023/03/22 06:45:51;;;;;;;24.30;16.00;;;;;;;;;;106404;1282;22780;-85
2023/03/22 06:48:25;;;;;;;26.10;15.70;;;;;;;;;;106406;1282;22530;-83
2023/03/22 06:51:06;;;;;;;22.00;15.50;;;;;;;;;;106471;1282;22554;-82
2023/03/22 06:53:35;;;;;;;23.00;15.50;;;;;;;;;;106457;1274;25442;-79
2023/03/22 06:56:03;;;;;;;22.70;14.60;;;;;;;;;;106442;1282;24215;-79
2023/03/22 06:58:33;;;;;;;22.70;16.00;;;;;;;;;;106454;1282;24391;-83
2023/03/22 07:01:03;;;;;;;21.60;15.10;;;;;;;;;;106308;1278;22651;-79
2023/03/22 07:03:30;;;;;;;23.30;15.30;;;;;;;;;;106314;1263;22634;-84
2023/03/22 07:06:07;;;;;;;24.60;15.80;;;;;;;;;;106491;1277;25252;-76
2023/03/22 07:08:47;;;;;;;22.60;16.40;;;;;;;;;;106576;1275;22540;-78
2023/03/22 07:11:19;;;;;;;21.40;15.60;;;;;;;;;;106320;1276;25280;-80
2023/03/22 07:13:59;;;;;;;26.90;16.90;;;;;;;;;;106375;1274;23880;-81
2023/03/22 07:16:28;;;;;;;26.50;17.20;;;;;;;;;;106484;1276;26480;-77
2023/03/22 07:18:58;;;;;;;26.00;16.00;;;;;;;;;;106361;1282;24283;-78
2023/03/22 07:21:25;;;;;;;26.90;16.40;;;;;;;;;;106440;1282;25335;-77
2023/03/22 07:23:57;;;;;;;23.00;15.50;;;;;;;;;;106413;1261;22550;-80
2023/03/22 07:26:25;;;;;;;23.90;16.20;;;;;;;;;;106426;1282;25053;-84
2023/03/22 07:28:53;;;;;;;24.50;16.40;;;;;;;;;;106842;1270;22531;-78
2023/03/22 07:31:22;;;;;;;26.30;15.90;;;;;;;;;;106743;1277;22771;-84
2023/03/22 07:34:11;;;;;;;26.10;17.10;;;;;;;;;;106774;1279;22565;-83
2023/03/22 07:36:55;;;;;;;27.20;17.60;;;;;;;;;;106725;1279;24321;-79
2023/03/22 07:39:26;;;;;;;23.90;16.10;;;;;;;;;;106801;1279;25370;-82
2023/03/22 07:41:53;;;;;;;26.40;15.80;;;;;;;;;;106825;1279;24343;-77
2023/03/22 07:44:27;;;;;;;27.00;15.50;;;;;;;;;;106770;1262;22630;-83
2023/03/22 07:47:13;;;;;;;24.70;14.90;;;;;;;;;;106807;1279;22533;-81
2023/03/22 07:49:50;;;;;;;23.90;15.10;;;;;;;;;;106807;1279;25316;-78
2023/03/22 07:52:33;;;;;;;24.70;15.00;;;;;;;;;;106806;1279;23911;-77
2023/03/22 07:55:00;;;;;;;24.00;15.10;;;;;;;;;;106716;1260;22524;-82
2023/03/22 07:57:32;;;;;;;24.00;15.40;;;;;;;;;;106775;1279;24201;-82
2023/03/22 08:00:00;;;;;;;26.00;15.30;;;;;;;;;;106797;1279;22533;-80
2023/03/22 08:02:44;;;;;;;25.00;15.50;;;;;;;;;;106846;1279;24115;-77
2023/03/22 08:05:17;;;;;;;18.70;12.90;;;;;;;;;;106757;1270;22624;-78
2023/03/22 08:07:46;;;;;;;21.90;13.50;;;;;;;;;;106727;1279;24246;-78
2023/03/22 08:10:13;;;;;;;18.80;13.00;;;;;;;;;;106873;1276;25338;-79
2023/03/22 08:12:49;;;;;;;19.60;12.80;;;;;;;;;;106907;1276;25302;-80
2023/03/22 08:15:21;;;;;;;20.60;13.20;;;;;;;;;;106907;1257;25318;-81
2023/03/22 08:17:57;;;;;;;18.50;12.40;;;;;;;;;;106853;1276;25185;-81
2023/03/22 08:20:34;;;;;;;20.10;12.00;;;;;;;;;;106877;1276;25338;-78
2023/03/22 08:23:06;;;;;;;19.40;12.90;;;;;;;;;;106884;1276;22674;-78
2023/03/22 08:25:52;;;;;;;20.20;13.10;;;;;;;;;;106861;1257;22536;-84
2023/03/22 08:28:19;;;;;;;20.40;13.80;;;;;;;;;;106905;1276;22489;-80
2023/03/22 08:30:47;;;;;;;18.90;13.60;;;;;;;;;;106880;1276;24217;-81
2023/03/22 08:33:14;;;;;;;18.90;13.60;;;;;;;;;;106872;1276;25346;-77
2023/03/22 08:35:43;;;;;;;18.60;13.10;;;;;;;;;;106856;1276;22545;-82
2023/03/22 08:38:11;;;;;;;18.50;13.30;;;;;;;;;;106859;1276;22540;-81
2023/03/22 08:40:49;;;;;;;18.00;12.30;;;;;;;;;;106894;1276;24263;-82
2023/03/22 08:43:20;;;;;;;20.80;13.10;;;;;;;;;;106874;1276;25258;-82
2023/03/22 08:45:49;;;;;;;19.70;13.30;;;;;;;;;;106920;1258;25341;-80
2023/03/22 08:48:17;;;;;;;19.50;13.90;;;;;;;;;;106894;1276;25532;-80
2023/03/22 08:51:05;;;;;;;18.00;12.40;;;;;;;;;;106906;1276;26491;-77
2023/03/22 08:53:45;;;;;;;18.30;13.10;;;;;;;;;;106884;1276;22488;-80
2023/03/22 08:56:27;;;;;;;17.70;12.50;;;;;;;;;;106915;1259;22632;-79
2023/03/22 08:59:03;;;;;;;17.30;12.40;;;;;;;;;;110421;1276;22328;-77
2023/03/22 09:01:38;;;;;;;20.30;13.10;;;;;;;;;;110419;1276;22174;-77
2023/03/22 09:04:08;;;;;;;21.20;13.20;;;;;;;;;;110447;1276;22096;-77
2023/03/22 09:06:36;;;;;;;20.20;13.30;;;;;;;;;;110441;1259;22797;-77
2023/03/22 09:09:03;;;;;;;17.00;12.20;;;;;;;;;;110429;1276;22387;-77
2023/03/22 09:11:30;;;;;;;18.10;13.00;;;;;;;;;;110419;1276;22357;-78
2023/03/22 09:13:57;;;;;;;20.90;13.40;;;;;;;;;;110427;1276;22493;-78
2023/03/22 09:16:24;;;;;;;18.10;12.30;;;;;;;;;;110512;1256;23041;-78
2023/03/22 09:18:51;;;;;;;18.10;11.80;;;;;;;;;;110442;1276;22257;-78
2023/03/22 09:21:20;;;;;;;18.80;11.70;;;;;;;;;;110370;1277;22110;-77
2023/03/22 09:23:57;;;;;;;18.60;12.20;;;;;;;;;;110389;1277;22097;-78
2023/03/22 09:26:32;;;;;;;17.50;10.30;;;;;;;;;;110535;1260;22138;-78
2023/03/22 09:28:59;;;;;;;14.40;10.00;;;;;;;;;;110421;1277;22071;-78
2023/03/22 09:31:27;;;;;;;15.90;9.80;;;;;;;;;;110403;1277;22114;-78
2023/03/22 09:34:15;;;;;;;15.10;9.60;;;;;;;;;;110393;1277;22098;-77
2023/03/22 09:36:41;;;;;;;13.30;9.50;;;;;;;;;;110576;1259;22170;-77
2023/03/22 09:39:09;;;;;;;14.00;9.10;;;;;;;;;;110405;1277;22173;-77
2023/03/22 09:41:38;;;;;;;11.90;7.90;;;;;;;;;;110468;1256;22095;-76
2023/03/22 09:44:07;;;;;;;14.10;8.40;;;;;;;;;;110404;1277;22091;-77
2023/03/22 09:46:36;;;;;;;11.20;7.60;;;;;;;;;;110213;1261;22126;-78
2023/03/22 09:49:16;;;;;;;12.30;7.60;;;;;;;;;;110398;1277;23068;-78
2023/03/22 09:51:45;;;;;;;12.50;6.90;;;;;;;;;;110381;1277;22820;-78
2023/03/22 09:54:19;;;;;;;11.70;7.40;;;;;;;;;;110458;1277;22088;-77
2023/03/22 09:56:59;;;;;;;9.60;6.00;;;;;;;;;;110195;1261;22119;-77
2023/03/22 09:59:29;;;;;;;10.80;5.40;;;;;;;;;;110414;1277;22293;-77
2023/03/22 10:02:00;;;;;;;8.40;4.90;;;;;;;;;;110439;1277;22018;-77
2023/03/22 10:04:36;;;;;;;10.80;6.40;;;;;;;;;;110448;1277;22206;-79
2023/03/22 10:07:06;;;;;;;11.90;5.80;;;;;;;;;;110378;1261;22842;-77
2023/03/22 10:09:42;;;;;;;10.10;5.70;;;;;;;;;;110459;1277;23162;-77
2023/03/22 10:12:11;;;;;;;10.60;6.00;;;;;;;;;;110460;1277;22166;-77
2023/03/22 10:14:46;;;;;;;10.60;5.90;;;;;;;;;;110196;1277;22617;-78
2023/03/22 10:17:15;;;;;;;9.60;5.40;;;;;;;;;;110541;1260;22113;-77
2023/03/22 10:19:48;;;;;;;22.10;10.60;;;;;;;;;;110410;1277;22401;-78
2023/03/22 10:22:16;;;;;;;10.50;6.00;;;;;;;;;;110318;1277;22845;-78
2023/03/22 10:24:44;;;;;;;12.00;6.20;;;;;;;;;;110328;1277;22107;-78
2023/03/22 10:27:18;;;;;;;12.30;6.80;;;;;;;;;;110282;1260;22818;-78
2023/03/22 10:29:47;;;;;;;11.70;6.40;;;;;;;;;;110332;1277;22347;-78
2023/03/22 10:32:15;;;;;;;10.80;5.90;;;;;;;;;;110337;1277;22961;-77
2023/03/22 10:34:43;;;;;;;11.30;6.20;;;;;;;;;;110444;1277;22124;-78
2023/03/22 10:37:13;;;;;;;12.90;5.90;;;;;;;;;;110295;1261;22835;-77
2023/03/22 10:39:42;;;;;;;12.00;5.60;;;;;;;;;;110429;1277;22151;-78
2023/03/22 10:42:12;;;;;;;11.60;5.90;;;;;;;;;;110419;1277;22105;-78
2023/03/22 10:44:49;;;;;;;9.50;5.40;;;;;;;;;;110332;1272;22156;-79
2023/03/22 10:47:18;;;;;;;9.80;5.10;;;;;;;;;;110477;1259;22170;-79
2023/03/22 10:49:48;;;;;;;11.10;5.40;;;;;;;;;;110445;1277;22123;-77
2023/03/22 10:52:35;;;;;;;11.10;4.90;;;;;;;;;;110352;1277;22741;-79
2023/03/22 10:55:03;;;;;;;9.40;4.70;;;;;;;;;;110435;1277;22131;-78
2023/03/22 10:57:30;;;;;;;12.30;5.70;;;;;;;;;;110360;1270;22871;-78
2023/03/22 10:59:57;;;;;;;8.10;4.20;;;;;;;;;;110422;1277;22150;-78
2023/03/22 11:02:28;;;;;;;10.60;4.80;;;;;;;;;;110401;1277;22847;-78
2023/03/22 11:05:00;;;;;;;9.30;4.70;;;;;;;;;;110445;1277;22198;-79
2023/03/22 11:07:40;;;;;;;8.70;3.50;;;;;;;;;;110391;1270;22739;-77
2023/03/22 11:10:07;;;;;;;6.40;2.50;;;;;;;;;;110180;1277;22816;-78
2023/03/22 11:12:48;;;;;;;8.40;2.90;;;;;;;;;;110424;1277;22119;-78
2023/03/22 11:15:18;;;;;;;5.40;1.60;;;;;;;;;;110343;1277;22127;-79
2023/03/22 11:17:45;;;;;;;4.80;1.50;;;;;;;;;;110536;1256;22161;-77
2023/03/22 11:20:16;;;;;;;4.70;1.80;;;;;;;;;;110398;1262;22273;-78
2023/03/22 11:22:45;;;;;;;8.30;2.40;;;;;;;;;;110186;1278;22768;-77
2023/03/22 11:25:29;;;;;;;5.00;2.00;;;;;;;;;;110288;1278;22177;-76
2023/03/22 11:28:04;;;;;;;6.30;1.80;;;;;;;;;;110218;1259;22811;-77
2023/03/22 11:30:32;;;;;;;6.10;2.40;;;;;;;;;;110411;1278;22347;-77
2023/03/22 11:32:59;;;;;;;7.40;2.30;;;;;;;;;;110407;1278;22120;-79
2023/03/22 11:35:28;;;;;;;5.70;1.60;;;;;;;;;;110374;1278;22124;-76
2023/03/22 11:37:55;;;;;;;4.80;1.40;;;;;;;;;;110271;1256;22237;-77
2023/03/22 11:40:23;;;;;;;10.00;1.80;;;;;;;;;;110366;1278;23028;-78
2023/03/22 11:42:52;;;;;;;6.50;1.50;;;;;;;;;;110180;1278;22117;-78
2023/03/22 11:45:32;;;;;;;3.90;0.90;;;;;;;;;;110293;1278;22147;-77
2023/03/22 11:48:04;;;;;;;5.00;1.00;;;;;;;;;;110414;1255;21976;-77
2023/03/22 11:50:36;;;;;;;2.90;0.80;;;;;;;;;;110293;1278;22090;-79
2023/03/22 11:53:07;;;;;;;5.40;1.00;;;;;;;;;;110197;1278;22134;-78
2023/03/22 11:55:35;;;;;;;7.90;1.30;;;;;;;;;;110391;1278;22138;-78
2023/03/22 11:58:03;;;;;;;4.10;1.00;;;;;;;;;;110310;1255;22386;-77
2023/03/22 12:00:32;;;;;;;5.70;1.60;;;;;;;;;;110303;1278;22126;-78
2023/03/22 12:03:16;;;;;;;9.00;1.50;;;;;;;;;;110308;1275;22090;-77
2023/03/22 12:05:50;;;;;;;5.30;1.00;;;;;;;;;;110295;1278;22169;-77
2023/03/22 12:08:24;;;;;;;5.90;1.10;;;;;;;;;;110382;1256;22815;-78
2023/03/22 12:11:17;;;;;;;4.90;1.10;;;;;;;;;;110389;1278;22794;-78
2023/03/22 12:13:50;;;;;;;3.10;1.00;;;;;;;;;;110191;1278;22128;-76
2023/03/22 12:16:27;;;;;;;3.60;1.00;;;;;;;;;;110284;1278;22107;-77
2023/03/22 12:19:12;;;;;;;3.40;0.90;;;;;;;;;;110247;1258;22153;-78
2023/03/22 12:21:49;;;;;;;11.90;1.70;;;;;;;;;;110340;1278;22136;-77
2023/03/22 12:24:25;;;;;;;6.30;1.20;;;;;;;;;;110197;1278;22075;-78
2023/03/22 12:27:16;;;;;;;6.30;1.50;;;;;;;;;;110329;1278;23104;-77
2023/03/22 12:29:46;;;;;;;5.10;1.60;;;;;;;;;;110519;1256;22083;-78
2023/03/22 12:32:20;;;;;;;5.90;1.30;;;;;;;;;;110187;1278;22892;-78
2023/03/22 12:34:49;;;;;;;4.80;1.40;;;;;;;;;;110211;1278;22816;-77
2023/03/22 12:37:21;;;;;;;3.80;1.00;;;;;;;;;;110225;1278;22123;-78
2023/03/22 12:39:55;;;;;;;2.20;0.90;;;;;;;;;;110357;1259;22137;-77
2023/03/22 12:42:24;;;;;;;5.70;1.40;;;;;;;;;;110315;1278;23029;-77
2023/03/22 12:44:57;;;;;;;4.90;1.00;;;;;;;;;;110328;1278;22927;-78
2023/03/22 12:47:54;;;;;;;4.60;1.30;;;;;;;;;;110315;1278;22143;-78
2023/03/22 12:50:40;;;;;;;3.00;0.90;;;;;;;;;;110247;1260;22117;-80
2023/03/22 12:53:11;;;;;;;3.60;1.00;;;;;;;;;;110195;1278;22947;-78
2023/03/22 12:55:39;;;;;;;5.10;1.20;;;;;;;;;;110210;1278;22094;-77
2023/03/22 12:58:12;;;;;;;3.50;1.10;;;;;;;;;;110316;1278;22161;-77
2023/03/22 13:00:51;;;;;;;5.00;1.30;;;;;;;;;;110281;1259;22903;-79
2023/03/22 13:03:22;;;;;;;5.60;1.50;;;;;;;;;;110184;1278;21997;-78
2023/03/22 13:05:58;;;;;;;5.70;2.10;;;;;;;;;;110180;1278;21945;-79
2023/03/22 13:08:44;;;;;;;7.90;2.00;;;;;;;;;;110180;1278;22301;-78
2023/03/22 13:11:20;;;;;;;8.10;1.70;;;;;;;;;;110258;1259;22867;-79
2023/03/22 13:13:47;;;;;;;8.20;1.50;;;;;;;;;;110152;1278;22809;-80
2023/03/22 13:16:16;;;;;;;5.40;1.30;;;;;;;;;;110195;1278;22182;-81
2023/03/22 13:18:48;;;;;;;9.40;1.70;;;;;;;;;;110177;1279;22128;-79
2023/03/22 13:21:23;;;;;;;4.60;1.40;;;;;;;;;;110526;1256;22239;-79
2023/03/22 13:23:56;;;;;;;6.60;2.50;;;;;;;;;;110164;1279;22852;-79
2023/03/22 13:26:46;;;;;;;6.80;1.70;;;;;;;;;;110159;1279;22145;-79
2023/03/22 13:29:23;;;;;;;4.90;2.10;;;;;;;;;;110128;1279;22127;-78
2023/03/22 13:31:57;;;;;;;9.10;3.50;;;;;;;;;;110271;1260;22107;-80
2023/03/22 13:34:35;;;;;;;9.00;2.50;;;;;;;;;;110175;1279;22127;-79
2023/03/22 13:37:06;;;;;;;11.40;2.30;;;;;;;;;;110179;1279;22775;-78
2023/03/22 13:39:34;;;;;;;8.40;2.50;;;;;;;;;;110148;1279;23102;-79
2023/03/22 13:42:22;;;;;;;7.60;2.40;;;;;;;;;;110459;1259;22127;-79
2023/03/22 13:44:58;;;;;;;8.50;2.50;;;;;;;;;;110255;1279;22396;-81
2023/03/22 13:47:55;;;;;;;6.10;2.20;;;;;;;;;;110170;1279;22115;-78
2023/03/22 13:50:27;;;;;;;9.00;2.30;;;;;;;;;;110262;1256;22844;-77
2023/03/22 13:52:58;;;;;;;6.00;2.00;;;;;;;;;;110167;1279;22138;-81
2023/03/22 13:55:43;;;;;;;6.10;2.20;;;;;;;;;;110249;1279;22933;-78
2023/03/22 13:58:35;;;;;;;7.90;3.20;;;;;;;;;;110239;1279;22124;-77
2023/03/22 14:01:19;;;;;;;6.70;2.10;;;;;;;;;;110241;1259;22133;-78
2023/03/22 14:03:49;;;;;;;7.30;2.00;;;;;;;;;;110257;1279;22147;-78
2023/03/22 14:06:30;;;;;;;8.40;2.50;;;;;;;;;;110160;1279;22819;-77
2023/03/22 14:09:01;;;;;;;5.30;1.70;;;;;;;;;;110256;1279;22170;-79
2023/03/22 14:11:31;;;;;;;7.10;1.90;;;;;;;;;;110172;1260;22767;-78
2023/03/22 14:14:04;;;;;;;13.10;2.30;;;;;;;;;;110134;1279;22044;-79
2023/03/22 14:16:40;;;;;;;6.00;1.80;;;;;;;;;;110165;1279;22146;-78
2023/03/22 14:19:08;;;;;;;8.90;2.60;;;;;;;;;;110058;1280;22222;-77
2023/03/22 14:21:41;;;;;;;11.00;3.00;;;;;;;;;;110257;1259;22412;-77
2023/03/22 14:24:16;;;;;;;9.60;1.80;;;;;;;;;;110070;1280;22226;-78
2023/03/22 14:26:45;;;;;;;10.70;2.10;;;;;;;;;;110075;1280;22156;-78
2023/03/22 14:29:17;;;;;;;8.80;2.30;;;;;;;;;;110108;1275;22141;-78
2023/03/22 14:31:45;;;;;;;5.40;1.80;;;;;;;;;;110201;1259;23167;-77
2023/03/22 14:34:17;;;;;;;6.00;1.70;;;;;;;;;;110136;1280;22943;-78
2023/03/22 14:36:48;;;;;;;9.30;2.20;;;;;;;;;;110138;1280;22453;-77
2023/03/22 14:39:21;;;;;;;7.40;2.50;;;;;;;;;;110085;1280;22791;-77
2023/03/22 14:42:02;;;;;;;6.50;2.60;;;;;;;;;;110108;1259;22671;-77
2023/03/22 14:44:37;;;;;;;9.20;2.20;;;;;;;;;;110089;1280;22113;-77
2023/03/22 14:47:10;;;;;;;6.20;2.10;;;;;;;;;;110092;1280;21999;-78
2023/03/22 14:49:39;;;;;;;6.60;2.20;;;;;;;;;;110111;1280;22105;-77
2023/03/22 14:52:12;;;;;;;8.40;2.70;;;;;;;;;;110247;1262;22222;-77
2023/03/22 14:54:42;;;;;;;8.30;2.60;;;;;;;;;;110069;1280;22866;-79
2023/03/22 14:57:15;;;;;;;7.30;2.10;;;;;;;;;;110155;1280;22156;-77
2023/03/22 14:59:43;;;;;;;6.50;2.40;;;;;;;;;;110173;1280;22461;-77
2023/03/22 15:02:21;;;;;;;8.00;2.50;;;;;;;;;;110136;1259;22780;-77